sensor_id;sensor_type;location;lat;lon;timestamp;temperature;humidity
69464;DHT22;56665;41.106;16.688;2023-05-10T00:00:14;17.83;81.66
69464;DHT22;56665;41.106;16.688;2023-05-10T00:03:18;17.79;81.70
69464;DHT22;56665;41.106;16.688;2023-05-10T00:06:22;17.79;81.65
69464;DHT22;56665;41.106;16.688;2023-05-10T00:09:27;17.75;81.80
69464;DHT22;56665;41.106;16.688;2023-05-10T00:12:31;17.65;81.88
69464;DHT22;56665;41.106;16.688;2023-05-10T00:15:36;17.61;82.09
69464;DHT22;56665;41.106;16.688;2023-05-10T00:18:40;17.54;82.26
69464;DHT22;56665;41.106;16.688;2023-05-10T00:21:45;17.45;82.53
69464;DHT22;56665;41.106;16.688;2023-05-10T00:24:49;17.41;82.60
69464;DHT22;56665;41.106;16.688;2023-05-10T00:27:53;17.39;82.83
69464;DHT22;56665;41.106;16.688;2023-05-10T00:31:00;17.32;83.03
69464;DHT22;56665;41.106;16.688;2023-05-10T00:34:06;17.30;83.35
69464;DHT22;56665;41.106;16.688;2023-05-10T00:37:10;17.24;83.29
69464;DHT22;56665;41.106;16.688;2023-05-10T00:40:14;17.20;83.29
69464;DHT22;56665;41.106;16.688;2023-05-10T00:43:23;17.13;83.45
69464;DHT22;56665;41.106;16.688;2023-05-10T00:46:26;17.08;83.53
69464;DHT22;56665;41.106;16.688;2023-05-10T00:49:30;17.04;83.71
69464;DHT22;56665;41.106;16.688;2023-05-10T00:52:35;17.00;83.78
69464;DHT22;56665;41.106;16.688;2023-05-10T00:55:39;16.95;83.78
69464;DHT22;56665;41.106;16.688;2023-05-10T00:58:42;16.86;83.99
69464;DHT22;56665;41.106;16.688;2023-05-10T01:01:47;16.85;84.21
69464;DHT22;56665;41.106;16.688;2023-05-10T01:04:50;16.82;84.30
69464;DHT22;56665;41.106;16.688;2023-05-10T01:07:56;16.75;84.14
69464;DHT22;56665;41.106;16.688;2023-05-10T01:11:01;16.63;84.39
69464;DHT22;56665;41.106;16.688;2023-05-10T01:14:07;16.65;84.48
69464;DHT22;56665;41.106;16.688;2023-05-10T01:17:12;16.63;84.41
69464;DHT22;56665;41.106;16.688;2023-05-10T01:20:16;16.59;84.52
69464;DHT22;56665;41.106;16.688;2023-05-10T01:23:33;16.59;84.23
69464;DHT22;56665;41.106;16.688;2023-05-10T01:33:26;16.48;84.14
69464;DHT22;56665;41.106;16.688;2023-05-10T01:36:52;16.45;84.29
69464;DHT22;56665;41.106;16.688;2023-05-10T01:40:06;16.46;84.13
69464;DHT22;56665;41.106;16.688;2023-05-10T01:43:23;16.39;84.00
69464;DHT22;56665;41.106;16.688;2023-05-10T01:46:37;16.34;84.04
69464;DHT22;56665;41.106;16.688;2023-05-10T01:49:53;16.35;84.11
69464;DHT22;56665;41.106;16.688;2023-05-10T01:53:01;16.34;83.75
69464;DHT22;56665;41.106;16.688;2023-05-10T01:56:07;16.32;83.69
69464;DHT22;56665;41.106;16.688;2023-05-10T01:59:15;16.32;83.84
69464;DHT22;56665;41.106;16.688;2023-05-10T02:02:21;16.28;83.82
69464;DHT22;56665;41.106;16.688;2023-05-10T02:05:26;16.22;83.74
69464;DHT22;56665;41.106;16.688;2023-05-10T02:08:34;16.20;83.84
69464;DHT22;56665;41.106;16.688;2023-05-10T02:11:42;16.18;84.05
69464;DHT22;56665;41.106;16.688;2023-05-10T02:14:47;16.20;83.99
69464;DHT22;56665;41.106;16.688;2023-05-10T02:17:54;16.17;83.96
69464;DHT22;56665;41.106;16.688;2023-05-10T02:20:58;16.15;83.93
69464;DHT22;56665;41.106;16.688;2023-05-10T02:24:04;16.13;83.98
69464;DHT22;56665;41.106;16.688;2023-05-10T02:27:09;16.10;83.91
69464;DHT22;56665;41.106;16.688;2023-05-10T02:30:16;16.10;83.87
69464;DHT22;56665;41.106;16.688;2023-05-10T02:33:21;16.04;84.08
69464;DHT22;56665;41.106;16.688;2023-05-10T02:36:27;16.03;84.27
69464;DHT22;56665;41.106;16.688;2023-05-10T02:39:32;16.01;84.20
69464;DHT22;56665;41.106;16.688;2023-05-10T02:42:37;15.96;84.42
69464;DHT22;56665;41.106;16.688;2023-05-10T02:45:43;15.97;84.49
69464;DHT22;56665;41.106;16.688;2023-05-10T02:48:47;15.98;84.51
69464;DHT22;56665;41.106;16.688;2023-05-10T02:51:56;15.97;84.40
69464;DHT22;56665;41.106;16.688;2023-05-10T02:55:04;15.93;84.14
69464;DHT22;56665;41.106;16.688;2023-05-10T02:58:08;15.90;84.17
69464;DHT22;56665;41.106;16.688;2023-05-10T03:01:12;15.88;84.38
69464;DHT22;56665;41.106;16.688;2023-05-10T03:04:17;15.86;84.02
69464;DHT22;56665;41.106;16.688;2023-05-10T03:07:22;15.81;84.28
69464;DHT22;56665;41.106;16.688;2023-05-10T03:10:29;15.81;84.24
69464;DHT22;56665;41.106;16.688;2023-05-10T03:20:55;15.71;84.40
69464;DHT22;56665;41.106;16.688;2023-05-10T03:24:11;15.70;84.10
69464;DHT22;56665;41.106;16.688;2023-05-10T03:27:16;15.71;83.83
69464;DHT22;56665;41.106;16.688;2023-05-10T03:30:21;15.66;84.13
69464;DHT22;56665;41.106;16.688;2023-05-10T03:33:24;15.70;84.14
69464;DHT22;56665;41.106;16.688;2023-05-10T03:36:30;15.70;83.99
69464;DHT22;56665;41.106;16.688;2023-05-10T03:39:35;15.70;83.67
69464;DHT22;56665;41.106;16.688;2023-05-10T03:42:40;15.71;83.32
69464;DHT22;56665;41.106;16.688;2023-05-10T03:45:45;15.73;83.17
69464;DHT22;56665;41.106;16.688;2023-05-10T03:48:48;15.74;83.19
69464;DHT22;56665;41.106;16.688;2023-05-10T03:51:52;15.77;83.21
69464;DHT22;56665;41.106;16.688;2023-05-10T03:54:56;15.80;83.08
69464;DHT22;56665;41.106;16.688;2023-05-10T03:58:01;15.84;82.84
69464;DHT22;56665;41.106;16.688;2023-05-10T04:01:06;15.91;82.80
69464;DHT22;56665;41.106;16.688;2023-05-10T04:04:09;16.00;82.55
69464;DHT22;56665;41.106;16.688;2023-05-10T04:07:15;16.08;82.10
69464;DHT22;56665;41.106;16.688;2023-05-10T04:10:19;16.15;81.91
69464;DHT22;56665;41.106;16.688;2023-05-10T04:13:25;16.22;81.73
69464;DHT22;56665;41.106;16.688;2023-05-10T04:16:28;16.35;81.39
69464;DHT22;56665;41.106;16.688;2023-05-10T04:19:32;16.49;80.95
69464;DHT22;56665;41.106;16.688;2023-05-10T04:22:38;16.62;80.16
69464;DHT22;56665;41.106;16.688;2023-05-10T04:25:43;16.76;79.95
69464;DHT22;56665;41.106;16.688;2023-05-10T04:28:48;16.87;79.47
69464;DHT22;56665;41.106;16.688;2023-05-10T04:31:52;17.03;79.19
69464;DHT22;56665;41.106;16.688;2023-05-10T04:34:56;17.18;78.74
69464;DHT22;56665;41.106;16.688;2023-05-10T04:38:00;17.38;78.36
69464;DHT22;56665;41.106;16.688;2023-05-10T04:41:10;17.61;77.38
69464;DHT22;56665;41.106;16.688;2023-05-10T04:44:14;17.83;76.67
69464;DHT22;56665;41.106;16.688;2023-05-10T04:47:20;18.09;76.24
69464;DHT22;56665;41.106;16.688;2023-05-10T04:50:24;18.40;75.41
69464;DHT22;56665;41.106;16.688;2023-05-10T04:53:29;18.82;74.09
69464;DHT22;56665;41.106;16.688;2023-05-10T04:56:33;19.35;72.79
69464;DHT22;56665;41.106;16.688;2023-05-10T04:59:39;19.71;70.76
69464;DHT22;56665;41.106;16.688;2023-05-10T05:02:44;20.07;70.69
69464;DHT22;56665;41.106;16.688;2023-05-10T05:05:51;20.24;70.65
69464;DHT22;56665;41.106;16.688;2023-05-10T05:08:56;20.29;70.80
69464;DHT22;56665;41.106;16.688;2023-05-10T05:12:01;20.33;71.14
69464;DHT22;56665;41.106;16.688;2023-05-10T05:15:05;20.35;71.59
69464;DHT22;56665;41.106;16.688;2023-05-10T05:18:12;20.35;71.60
69464;DHT22;56665;41.106;16.688;2023-05-10T05:21:17;20.40;71.57
69464;DHT22;56665;41.106;16.688;2023-05-10T05:24:23;20.45;70.97
69464;DHT22;56665;41.106;16.688;2023-05-10T05:27:27;20.42;70.17
69464;DHT22;56665;41.106;16.688;2023-05-10T05:30:31;20.45;70.66
69464;DHT22;56665;41.106;16.688;2023-05-10T05:33:37;20.57;70.15
69464;DHT22;56665;41.106;16.688;2023-05-10T05:36:41;20.66;70.14
69464;DHT22;56665;41.106;16.688;2023-05-10T05:39:47;20.73;70.11
69464;DHT22;56665;41.106;16.688;2023-05-10T05:42:53;20.83;70.40
69464;DHT22;56665;41.106;16.688;2023-05-10T05:45:57;20.86;70.86
69464;DHT22;56665;41.106;16.688;2023-05-10T05:49:04;20.81;70.44
69464;DHT22;56665;41.106;16.688;2023-05-10T05:52:11;20.80;70.70
69464;DHT22;56665;41.106;16.688;2023-05-10T05:55:15;20.77;70.47
69464;DHT22;56665;41.106;16.688;2023-05-10T05:58:20;20.76;70.74
69464;DHT22;56665;41.106;16.688;2023-05-10T06:01:25;20.75;70.77
69464;DHT22;56665;41.106;16.688;2023-05-10T06:04:29;20.72;71.25
69464;DHT22;56665;41.106;16.688;2023-05-10T06:07:34;20.75;71.52
69464;DHT22;56665;41.106;16.688;2023-05-10T06:10:37;20.75;71.91
69464;DHT22;56665;41.106;16.688;2023-05-10T06:13:41;20.81;71.54
69464;DHT22;56665;41.106;16.688;2023-05-10T06:16:45;20.88;71.57
69464;DHT22;56665;41.106;16.688;2023-05-10T06:19:50;21.00;71.16
69464;DHT22;56665;41.106;16.688;2023-05-10T06:22:55;21.14;70.79
69464;DHT22;56665;41.106;16.688;2023-05-10T06:26:01;21.31;70.81
69464;DHT22;56665;41.106;16.688;2023-05-10T06:29:06;21.41;69.90
69464;DHT22;56665;41.106;16.688;2023-05-10T06:32:10;21.56;69.61
69464;DHT22;56665;41.106;16.688;2023-05-10T06:35:15;21.75;69.24
69464;DHT22;56665;41.106;16.688;2023-05-10T06:38:21;21.95;68.57
69464;DHT22;56665;41.106;16.688;2023-05-10T06:41:26;22.14;67.99
69464;DHT22;56665;41.106;16.688;2023-05-10T06:44:32;22.41;67.68
69464;DHT22;56665;41.106;16.688;2023-05-10T06:47:36;22.57;66.92
69464;DHT22;56665;41.106;16.688;2023-05-10T06:50:42;22.57;66.85
69464;DHT22;56665;41.106;16.688;2023-05-10T06:53:47;22.74;66.40
69464;DHT22;56665;41.106;16.688;2023-05-10T06:56:50;22.86;66.25
69464;DHT22;56665;41.106;16.688;2023-05-10T06:59:55;23.09;65.87
69464;DHT22;56665;41.106;16.688;2023-05-10T07:03:02;23.26;65.44
69464;DHT22;56665;41.106;16.688;2023-05-10T07:06:06;23.03;65.86
69464;DHT22;56665;41.106;16.688;2023-05-10T07:09:10;23.06;66.05
69464;DHT22;56665;41.106;16.688;2023-05-10T07:12:16;23.15;65.77
69464;DHT22;56665;41.106;16.688;2023-05-10T07:15:20;22.96;66.32
69464;DHT22;56665;41.106;16.688;2023-05-10T07:18:25;22.96;65.96
69464;DHT22;56665;41.106;16.688;2023-05-10T07:21:30;22.95;65.78
69464;DHT22;56665;41.106;16.688;2023-05-10T07:24:38;22.78;65.66
69464;DHT22;56665;41.106;16.688;2023-05-10T07:27:42;22.85;65.59
69464;DHT22;56665;41.106;16.688;2023-05-10T07:30:47;22.88;65.60
69464;DHT22;56665;41.106;16.688;2023-05-10T07:33:54;23.30;65.14
69464;DHT22;56665;41.106;16.688;2023-05-10T07:37:01;23.77;63.96
69464;DHT22;56665;41.106;16.688;2023-05-10T07:40:06;24.29;62.73
69464;DHT22;56665;41.106;16.688;2023-05-10T07:43:11;24.76;60.76
69464;DHT22;56665;41.106;16.688;2023-05-10T07:46:14;25.59;58.50
69464;DHT22;56665;41.106;16.688;2023-05-10T07:49:19;25.69;58.01
69464;DHT22;56665;41.106;16.688;2023-05-10T07:52:23;25.46;57.73
69464;DHT22;56665;41.106;16.688;2023-05-10T07:55:27;25.38;58.42
69464;DHT22;56665;41.106;16.688;2023-05-10T07:58:31;25.83;57.20
69464;DHT22;56665;41.106;16.688;2023-05-10T08:01:35;26.17;56.87
69464;DHT22;56665;41.106;16.688;2023-05-10T08:04:41;26.80;55.37
69464;DHT22;56665;41.106;16.688;2023-05-10T08:07:45;27.40;54.02
69464;DHT22;56665;41.106;16.688;2023-05-10T08:10:51;27.95;52.30
69464;DHT22;56665;41.106;16.688;2023-05-10T08:13:55;28.52;51.44
69464;DHT22;56665;41.106;16.688;2023-05-10T08:17:00;29.18;50.51
69464;DHT22;56665;41.106;16.688;2023-05-10T08:20:05;29.28;50.07
69464;DHT22;56665;41.106;16.688;2023-05-10T08:23:13;28.77;50.84
69464;DHT22;56665;41.106;16.688;2023-05-10T08:26:17;29.03;50.76
69464;DHT22;56665;41.106;16.688;2023-05-10T08:29:22;28.83;51.05
69464;DHT22;56665;41.106;16.688;2023-05-10T08:32:26;28.97;50.56
69464;DHT22;56665;41.106;16.688;2023-05-10T08:35:29;28.76;50.06
69464;DHT22;56665;41.106;16.688;2023-05-10T08:38:34;27.69;51.57
69464;DHT22;56665;41.106;16.688;2023-05-10T08:41:40;26.75;54.27
69464;DHT22;56665;41.106;16.688;2023-05-10T08:44:48;26.27;54.92
69464;DHT22;56665;41.106;16.688;2023-05-10T08:47:53;27.12;53.46
69464;DHT22;56665;41.106;16.688;2023-05-10T08:51:00;27.51;52.54
69464;DHT22;56665;41.106;16.688;2023-05-10T08:54:05;27.81;52.00
69464;DHT22;56665;41.106;16.688;2023-05-10T08:57:10;28.11;51.24
69464;DHT22;56665;41.106;16.688;2023-05-10T09:00:14;27.85;51.26
69464;DHT22;56665;41.106;16.688;2023-05-10T09:03:18;27.50;51.98
69464;DHT22;56665;41.106;16.688;2023-05-10T09:06:22;27.70;51.31
69464;DHT22;56665;41.106;16.688;2023-05-10T09:09:27;28.07;50.97
69464;DHT22;56665;41.106;16.688;2023-05-10T09:12:32;29.03;48.53
69464;DHT22;56665;41.106;16.688;2023-05-10T09:15:36;30.14;46.08
69464;DHT22;56665;41.106;16.688;2023-05-10T09:18:40;31.56;43.47
69464;DHT22;56665;41.106;16.688;2023-05-10T09:21:45;32.04;42.50
69464;DHT22;56665;41.106;16.688;2023-05-10T09:25:03;31.00;44.77
69464;DHT22;56665;41.106;16.688;2023-05-10T09:28:08;29.69;47.08
69464;DHT22;56665;41.106;16.688;2023-05-10T09:31:14;29.31;47.96
69464;DHT22;56665;41.106;16.688;2023-05-10T09:34:19;28.76;49.56
69464;DHT22;56665;41.106;16.688;2023-05-10T09:37:29;28.62;49.76
69464;DHT22;56665;41.106;16.688;2023-05-10T09:40:33;28.83;48.90
69464;DHT22;56665;41.106;16.688;2023-05-10T09:43:37;29.04;48.39
69464;DHT22;56665;41.106;16.688;2023-05-10T09:46:48;28.80;48.86
69464;DHT22;56665;41.106;16.688;2023-05-10T09:49:52;28.45;49.36
69464;DHT22;56665;41.106;16.688;2023-05-10T09:53:01;27.85;50.48
69464;DHT22;56665;41.106;16.688;2023-05-10T09:56:06;27.42;51.59
69464;DHT22;56665;41.106;16.688;2023-05-10T09:59:11;26.96;52.54
69464;DHT22;56665;41.106;16.688;2023-05-10T10:02:20;27.08;52.12
69464;DHT22;56665;41.106;16.688;2023-05-10T10:05:31;26.89;52.07
69464;DHT22;56665;41.106;16.688;2023-05-10T10:08:43;26.72;52.70
69464;DHT22;56665;41.106;16.688;2023-05-10T10:11:50;27.02;52.65
69464;DHT22;56665;41.106;16.688;2023-05-10T10:14:54;27.20;51.63
69464;DHT22;56665;41.106;16.688;2023-05-10T10:18:01;27.08;51.26
69464;DHT22;56665;41.106;16.688;2023-05-10T10:21:07;26.47;53.02
69464;DHT22;56665;41.106;16.688;2023-05-10T10:24:15;26.41;53.51
69464;DHT22;56665;41.106;16.688;2023-05-10T10:27:26;26.16;54.66
69464;DHT22;56665;41.106;16.688;2023-05-10T10:30:45;26.50;53.86
69464;DHT22;56665;41.106;16.688;2023-05-10T10:34:05;26.57;53.92
69464;DHT22;56665;41.106;16.688;2023-05-10T10:37:10;27.09;52.74
69464;DHT22;56665;41.106;16.688;2023-05-10T10:40:28;26.43;53.98
69464;DHT22;56665;41.106;16.688;2023-05-10T10:43:32;26.73;53.56
69464;DHT22;56665;41.106;16.688;2023-05-10T10:50:22;26.95;52.96
69464;DHT22;56665;41.106;16.688;2023-05-10T10:53:27;26.29;53.29
69464;DHT22;56665;41.106;16.688;2023-05-10T10:56:34;26.47;52.61
69464;DHT22;56665;41.106;16.688;2023-05-10T10:59:42;26.60;52.81
69464;DHT22;56665;41.106;16.688;2023-05-10T11:05:58;26.72;53.04
69464;DHT22;56665;41.106;16.688;2023-05-10T11:09:07;27.27;51.86
69464;DHT22;56665;41.106;16.688;2023-05-10T11:12:12;27.12;51.78
69464;DHT22;56665;41.106;16.688;2023-05-10T11:15:17;26.60;52.62
69464;DHT22;56665;41.106;16.688;2023-05-10T11:18:25;26.48;52.87
69464;DHT22;56665;41.106;16.688;2023-05-10T11:21:31;26.77;52.95
69464;DHT22;56665;41.106;16.688;2023-05-10T11:24:35;26.39;53.55
69464;DHT22;56665;41.106;16.688;2023-05-10T11:27:41;26.20;53.97
69464;DHT22;56665;41.106;16.688;2023-05-10T11:30:46;26.40;53.29
69464;DHT22;56665;41.106;16.688;2023-05-10T11:33:56;26.64;52.57
69464;DHT22;56665;41.106;16.688;2023-05-10T11:37:03;26.39;53.03
69464;DHT22;56665;41.106;16.688;2023-05-10T11:40:09;26.64;52.68
69464;DHT22;56665;41.106;16.688;2023-05-10T11:43:15;27.13;51.33
69464;DHT22;56665;41.106;16.688;2023-05-10T11:46:22;27.12;51.72
69464;DHT22;56665;41.106;16.688;2023-05-10T11:49:26;27.29;50.99
69464;DHT22;56665;41.106;16.688;2023-05-10T11:52:35;27.06;51.49
69464;DHT22;56665;41.106;16.688;2023-05-10T11:55:42;26.92;52.05
69464;DHT22;56665;41.106;16.688;2023-05-10T11:58:59;26.51;53.08
69464;DHT22;56665;41.106;16.688;2023-05-10T12:02:06;26.30;52.78
69464;DHT22;56665;41.106;16.688;2023-05-10T12:05:11;26.03;53.41
69464;DHT22;56665;41.106;16.688;2023-05-10T12:08:22;25.62;54.61
69464;DHT22;56665;41.106;16.688;2023-05-10T12:11:28;25.28;55.13
69464;DHT22;56665;41.106;16.688;2023-05-10T12:14:34;25.10;55.66
69464;DHT22;56665;41.106;16.688;2023-05-10T12:17:40;24.74;56.16
69464;DHT22;56665;41.106;16.688;2023-05-10T12:20:43;24.51;57.18
69464;DHT22;56665;41.106;16.688;2023-05-10T12:23:59;24.45;59.97
69464;DHT22;56665;41.106;16.688;2023-05-10T12:27:08;24.15;62.78
69464;DHT22;56665;41.106;16.688;2023-05-10T12:30:13;23.57;65.96
69464;DHT22;56665;41.106;16.688;2023-05-10T12:33:24;23.25;67.98
69464;DHT22;56665;41.106;16.688;2023-05-10T12:36:30;23.00;69.57
69464;DHT22;56665;41.106;16.688;2023-05-10T12:39:39;22.72;70.85
69464;DHT22;56665;41.106;16.688;2023-05-10T12:42:43;22.31;71.94
69464;DHT22;56665;41.106;16.688;2023-05-10T12:45:50;22.07;72.70
69464;DHT22;56665;41.106;16.688;2023-05-10T12:48:54;21.90;72.63
69464;DHT22;56665;41.106;16.688;2023-05-10T12:51:59;21.90;74.26
69464;DHT22;56665;41.106;16.688;2023-05-10T12:55:04;21.80;74.34
69464;DHT22;56665;41.106;16.688;2023-05-10T12:58:08;21.69;75.09
69464;DHT22;56665;41.106;16.688;2023-05-10T13:01:15;21.85;75.25
69464;DHT22;56665;41.106;16.688;2023-05-10T13:04:19;21.79;75.55
69464;DHT22;56665;41.106;16.688;2023-05-10T13:07:25;21.93;75.32
69464;DHT22;56665;41.106;16.688;2023-05-10T13:10:32;21.88;72.82
69464;DHT22;56665;41.106;16.688;2023-05-10T13:13:37;21.82;71.12
69464;DHT22;56665;41.106;16.688;2023-05-10T13:16:40;21.85;70.20
69464;DHT22;56665;41.106;16.688;2023-05-10T13:19:44;21.79;70.09
69464;DHT22;56665;41.106;16.688;2023-05-10T13:22:49;21.85;69.68
69464;DHT22;56665;41.106;16.688;2023-05-10T13:25:53;21.79;69.27
69464;DHT22;56665;41.106;16.688;2023-05-10T13:28:59;21.70;68.64
69464;DHT22;56665;41.106;16.688;2023-05-10T13:32:03;21.72;69.05
69464;DHT22;56665;41.106;16.688;2023-05-10T13:35:07;22.00;69.19
69464;DHT22;56665;41.106;16.688;2023-05-10T13:38:14;22.12;68.51
69464;DHT22;56665;41.106;16.688;2023-05-10T13:41:21;22.20;68.27
69464;DHT22;56665;41.106;16.688;2023-05-10T13:44:25;22.10;68.43
69464;DHT22;56665;41.106;16.688;2023-05-10T13:47:33;21.99;68.69
69464;DHT22;56665;41.106;16.688;2023-05-10T13:50:37;21.55;68.34
69464;DHT22;56665;41.106;16.688;2023-05-10T13:53:41;21.34;69.34
69464;DHT22;56665;41.106;16.688;2023-05-10T13:56:48;21.17;70.12
69464;DHT22;56665;41.106;16.688;2023-05-10T13:59:52;20.91;71.99
69464;DHT22;56665;41.106;16.688;2023-05-10T14:02:56;20.75;73.46
69464;DHT22;56665;41.106;16.688;2023-05-10T14:06:01;20.77;73.42
69464;DHT22;56665;41.106;16.688;2023-05-10T14:09:05;20.73;74.90
69464;DHT22;56665;41.106;16.688;2023-05-10T14:12:11;20.87;74.39
69464;DHT22;56665;41.106;16.688;2023-05-10T14:15:18;21.22;73.23
69464;DHT22;56665;41.106;16.688;2023-05-10T14:18:22;21.41;72.64
69464;DHT22;56665;41.106;16.688;2023-05-10T14:21:25;21.67;72.01
69464;DHT22;56665;41.106;16.688;2023-05-10T14:24:29;21.88;71.70
69464;DHT22;56665;41.106;16.688;2023-05-10T14:27:33;21.89;72.06
69464;DHT22;56665;41.106;16.688;2023-05-10T14:30:37;21.79;72.54
69464;DHT22;56665;41.106;16.688;2023-05-10T14:33:41;21.75;72.76
69464;DHT22;56665;41.106;16.688;2023-05-10T14:36:46;21.70;73.12
69464;DHT22;56665;41.106;16.688;2023-05-10T14:39:51;21.73;73.56
69464;DHT22;56665;41.106;16.688;2023-05-10T14:42:56;21.76;73.50
69464;DHT22;56665;41.106;16.688;2023-05-10T14:46:00;21.75;73.58
69464;DHT22;56665;41.106;16.688;2023-05-10T14:49:04;21.75;73.45
69464;DHT22;56665;41.106;16.688;2023-05-10T14:52:08;21.63;74.33
69464;DHT22;56665;41.106;16.688;2023-05-10T14:55:13;21.69;74.01
69464;DHT22;56665;41.106;16.688;2023-05-10T14:58:18;21.72;73.74
69464;DHT22;56665;41.106;16.688;2023-05-10T15:01:22;21.61;72.98
69464;DHT22;56665;41.106;16.688;2023-05-10T15:04:27;21.58;73.67
69464;DHT22;56665;41.106;16.688;2023-05-10T15:07:31;21.65;73.43
69464;DHT22;56665;41.106;16.688;2023-05-10T15:10:37;21.46;71.97
69464;DHT22;56665;41.106;16.688;2023-05-10T15:13:42;21.34;72.40
69464;DHT22;56665;41.106;16.688;2023-05-10T15:16:46;21.37;72.38
69464;DHT22;56665;41.106;16.688;2023-05-10T15:19:54;21.54;71.97
69464;DHT22;56665;41.106;16.688;2023-05-10T15:22:58;21.42;71.58
69464;DHT22;56665;41.106;16.688;2023-05-10T15:26:04;21.30;71.41
69464;DHT22;56665;41.106;16.688;2023-05-10T15:29:08;21.14;72.26
69464;DHT22;56665;41.106;16.688;2023-05-10T15:32:13;21.19;72.70
69464;DHT22;56665;41.106;16.688;2023-05-10T15:35:18;21.18;73.04
69464;DHT22;56665;41.106;16.688;2023-05-10T15:38:22;21.17;73.27
69464;DHT22;56665;41.106;16.688;2023-05-10T15:41:29;20.88;73.47
69464;DHT22;56665;41.106;16.688;2023-05-10T15:44:26;20.64;74.44
69464;DHT22;56665;41.106;16.688;2023-05-10T15:47:33;20.43;75.45
69464;DHT22;56665;41.106;16.688;2023-05-10T15:50:37;20.21;76.62
69464;DHT22;56665;41.106;16.688;2023-05-10T15:53:43;20.12;77.82
69464;DHT22;56665;41.106;16.688;2023-05-10T15:56:47;19.89;78.82
69464;DHT22;56665;41.106;16.688;2023-05-10T15:59:51;19.61;79.62
69464;DHT22;56665;41.106;16.688;2023-05-10T16:02:57;19.60;80.35
69464;DHT22;56665;41.106;16.688;2023-05-10T16:06:02;19.50;80.17
69464;DHT22;56665;41.106;16.688;2023-05-10T16:09:08;19.49;79.92
69464;DHT22;56665;41.106;16.688;2023-05-10T16:12:12;19.46;80.26
69464;DHT22;56665;41.106;16.688;2023-05-10T16:15:16;19.47;80.45
69464;DHT22;56665;41.106;16.688;2023-05-10T16:18:20;19.53;80.50
69464;DHT22;56665;41.106;16.688;2023-05-10T16:21:24;19.35;78.20
69464;DHT22;56665;41.106;16.688;2023-05-10T16:24:29;19.26;78.02
69464;DHT22;56665;41.106;16.688;2023-05-10T16:27:33;19.25;78.36
69464;DHT22;56665;41.106;16.688;2023-05-10T16:30:37;19.26;78.28
69464;DHT22;56665;41.106;16.688;2023-05-10T16:33:41;19.25;78.34
69464;DHT22;56665;41.106;16.688;2023-05-10T16:36:46;19.18;78.35
69464;DHT22;56665;41.106;16.688;2023-05-10T16:39:51;19.18;78.92
69464;DHT22;56665;41.106;16.688;2023-05-10T16:42:55;19.19;79.07
69464;DHT22;56665;41.106;16.688;2023-05-10T16:46:00;19.09;79.51
69464;DHT22;56665;41.106;16.688;2023-05-10T16:49:05;19.06;80.21
69464;DHT22;56665;41.106;16.688;2023-05-10T16:52:11;19.08;80.79
69464;DHT22;56665;41.106;16.688;2023-05-10T16:55:15;18.99;81.06
69464;DHT22;56665;41.106;16.688;2023-05-10T16:58:20;18.92;81.46
69464;DHT22;56665;41.106;16.688;2023-05-10T17:01:24;18.86;81.80
69464;DHT22;56665;41.106;16.688;2023-05-10T17:04:28;18.72;82.14
69464;DHT22;56665;41.106;16.688;2023-05-10T17:07:32;18.63;82.31
69464;DHT22;56665;41.106;16.688;2023-05-10T17:10:40;18.57;83.04
69464;DHT22;56665;41.106;16.688;2023-05-10T17:13:49;18.46;83.72
69464;DHT22;56665;41.106;16.688;2023-05-10T17:16:54;18.38;84.58
69464;DHT22;56665;41.106;16.688;2023-05-10T17:19:58;18.31;84.09
69464;DHT22;56665;41.106;16.688;2023-05-10T17:23:03;18.20;84.70
69464;DHT22;56665;41.106;16.688;2023-05-10T17:26:07;18.17;85.12
69464;DHT22;56665;41.106;16.688;2023-05-10T17:29:11;18.07;85.78
69464;DHT22;56665;41.106;16.688;2023-05-10T17:32:16;18.03;86.38
69464;DHT22;56665;41.106;16.688;2023-05-10T17:35:20;17.99;86.76
69464;DHT22;56665;41.106;16.688;2023-05-10T17:38:25;17.96;86.31
69464;DHT22;56665;41.106;16.688;2023-05-10T17:41:29;17.95;86.40
69464;DHT22;56665;41.106;16.688;2023-05-10T17:44:33;17.83;86.58
69464;DHT22;56665;41.106;16.688;2023-05-10T17:47:37;17.82;86.79
69464;DHT22;56665;41.106;16.688;2023-05-10T17:50:42;17.78;86.37
69464;DHT22;56665;41.106;16.688;2023-05-10T17:53:46;17.81;86.01
69464;DHT22;56665;41.106;16.688;2023-05-10T17:56:49;17.83;86.04
69464;DHT22;56665;41.106;16.688;2023-05-10T17:59:54;17.81;85.54
69464;DHT22;56665;41.106;16.688;2023-05-10T18:02:58;17.78;85.41
69464;DHT22;56665;41.106;16.688;2023-05-10T18:06:02;17.79;85.77
69464;DHT22;56665;41.106;16.688;2023-05-10T18:09:06;17.82;85.29
69464;DHT22;56665;41.106;16.688;2023-05-10T18:12:11;17.81;85.59
69464;DHT22;56665;41.106;16.688;2023-05-10T18:15:15;17.82;85.61
69464;DHT22;56665;41.106;16.688;2023-05-10T18:18:20;17.82;85.73
69464;DHT22;56665;41.106;16.688;2023-05-10T18:21:29;17.81;85.54
69464;DHT22;56665;41.106;16.688;2023-05-10T18:24:34;17.82;85.81
69464;DHT22;56665;41.106;16.688;2023-05-10T18:27:38;17.82;86.17
69464;DHT22;56665;41.106;16.688;2023-05-10T18:30:44;17.81;86.25
69464;DHT22;56665;41.106;16.688;2023-05-10T18:33:48;17.78;86.70
69464;DHT22;56665;41.106;16.688;2023-05-10T18:36:52;17.81;87.38
69464;DHT22;56665;41.106;16.688;2023-05-10T18:39:56;17.96;87.40
69464;DHT22;56665;41.106;16.688;2023-05-10T18:43:02;18.09;86.71
69464;DHT22;56665;41.106;16.688;2023-05-10T18:46:05;18.16;85.97
69464;DHT22;56665;41.106;16.688;2023-05-10T18:49:10;18.23;86.11
69464;DHT22;56665;41.106;16.688;2023-05-10T18:52:13;18.27;86.25
69464;DHT22;56665;41.106;16.688;2023-05-10T18:55:18;18.31;86.65
69464;DHT22;56665;41.106;16.688;2023-05-10T19:42:40;18.41;85.29
69464;DHT22;56665;41.106;16.688;2023-05-10T19:45:44;18.31;85.32
69464;DHT22;56665;41.106;16.688;2023-05-10T19:48:48;18.31;85.44
69464;DHT22;56665;41.106;16.688;2023-05-10T19:51:52;18.30;85.93
69464;DHT22;56665;41.106;16.688;2023-05-10T19:54:56;18.27;86.16
69464;DHT22;56665;41.106;16.688;2023-05-10T19:58:00;18.18;86.07
69464;DHT22;56665;41.106;16.688;2023-05-10T20:01:04;18.12;86.37
69464;DHT22;56665;41.106;16.688;2023-05-10T20:04:11;18.07;86.94
69464;DHT22;56665;41.106;16.688;2023-05-10T20:07:15;17.96;87.40
69464;DHT22;56665;41.106;16.688;2023-05-10T20:10:20;17.92;87.59
69464;DHT22;56665;41.106;16.688;2023-05-10T20:13:24;17.89;88.08
69464;DHT22;56665;41.106;16.688;2023-05-10T20:16:28;17.82;88.37